Skip Navigation LinksHome page > Weather > Current weather Skip Navigation Links

Current Weather

San Francisco International, San Francisco

For information only: do not use for flight planning or navigation.
Latest weather
Observation time Thursday, November 21, 2019 10:56 AM PST
Local time Thursday, November 21, 2019 12:01 PM PST
Flight conditions Visual Meteorological Conditions
Winds
Wind direction Northeast (50°)
Wind speed 5 mph
Visibility 10 mi.
Sky condition
Ceiling unlimited
Sky clear
Temperature 59°F
Dewpoint 43°F
Altimeter 29.88 in.Hg
Derived measurements
Relative humidity 55%
Density altitude 198 ft.
Sea-level pressure 29.88 in.Hg
Remarks
Automated weather observing station with precipitation discriminator.
METAR KSFO 211856Z 05004KT 10SM CLR 15/06 A2988 RMK AO2 SLP117 T01500061

Settings

Location code

InnerDrive.Weather 4.0.6770.0 Release CLR 4.0.30319.42000
Copyright ©2018 Inner Drive Technology. All rights reserved. Portions Copyright ©1986-2018 David Braverman.

Find weather

Site navigation


Skip Navigation Links

Place info

Page info

PayPal - The safer, easier way to pay online!

Return home.

Copyright ©2019 Inner Drive Technology. Purveyors of fine, hand-crafted computer software. Page printed 2019-11-21T20:01:02 UTC.